sensor_id;sensor_type;location;lat;lon;timestamp;pressure;altitude;pressure_sealevel;temperature;humidity
56420;BME280;42323;52.170;7.538;2023-06-26T00:01:28;100846.44;;;23.28;62.39
56420;BME280;42323;52.170;7.538;2023-06-26T00:03:58;100844.78;;;23.22;62.50
56420;BME280;42323;52.170;7.538;2023-06-26T00:06:25;100845.53;;;23.17;62.62
56420;BME280;42323;52.170;7.538;2023-06-26T00:08:53;100845.22;;;23.14;62.81
56420;BME280;42323;52.170;7.538;2023-06-26T00:11:20;100844.97;;;23.10;63.06
56420;BME280;42323;52.170;7.538;2023-06-26T00:13:47;100841.41;;;23.04;63.13
56420;BME280;42323;52.170;7.538;2023-06-26T00:16:14;100833.34;;;22.99;63.54
56420;BME280;42323;52.170;7.538;2023-06-26T00:18:40;100839.19;;;22.96;63.64
56420;BME280;42323;52.170;7.538;2023-06-26T00:21:06;100835.69;;;22.91;63.80
56420;BME280;42323;52.170;7.538;2023-06-26T00:23:33;100833.72;;;22.86;64.15
56420;BME280;42323;52.170;7.538;2023-06-26T00:26:05;100826.75;;;22.80;64.18
56420;BME280;42323;52.170;7.538;2023-06-26T00:28:31;100828.03;;;22.77;64.16
56420;BME280;42323;52.170;7.538;2023-06-26T00:30:58;100820.22;;;22.71;64.58
56420;BME280;42323;52.170;7.538;2023-06-26T00:33:24;100814.59;;;22.67;64.85
56420;BME280;42323;52.170;7.538;2023-06-26T00:35:51;100821.97;;;22.60;65.07
56420;BME280;42323;52.170;7.538;2023-06-26T00:38:17;100819.31;;;22.60;65.32
56420;BME280;42323;52.170;7.538;2023-06-26T00:40:44;100814.97;;;22.54;65.43
56420;BME280;42323;52.170;7.538;2023-06-26T00:43:10;100814.66;;;22.50;65.58
56420;BME280;42323;52.170;7.538;2023-06-26T00:45:36;100815.16;;;22.47;65.86
56420;BME280;42323;52.170;7.538;2023-06-26T00:48:09;100812.66;;;22.41;66.03
56420;BME280;42323;52.170;7.538;2023-06-26T00:50:38;100801.13;;;22.35;66.19
56420;BME280;42323;52.170;7.538;2023-06-26T00:53:05;100812.81;;;22.29;66.60
56420;BME280;42323;52.170;7.538;2023-06-26T00:55:31;100799.09;;;22.20;67.02
56420;BME280;42323;52.170;7.538;2023-06-26T00:57:58;100803.88;;;22.18;67.06
56420;BME280;42323;52.170;7.538;2023-06-26T01:00:24;100802.22;;;22.12;67.37
56420;BME280;42323;52.170;7.538;2023-06-26T01:02:51;100797.00;;;22.05;67.69
56420;BME280;42323;52.170;7.538;2023-06-26T01:05:17;100799.13;;;22.03;67.86
56420;BME280;42323;52.170;7.538;2023-06-26T01:07:47;100795.91;;;22.01;67.90
56420;BME280;42323;52.170;7.538;2023-06-26T01:10:17;100795.91;;;22.01;67.92
56420;BME280;42323;52.170;7.538;2023-06-26T01:12:44;100790.28;;;21.98;68.08
56420;BME280;42323;52.170;7.538;2023-06-26T01:15:12;100785.16;;;21.96;68.39
56420;BME280;42323;52.170;7.538;2023-06-26T01:17:39;100786.72;;;21.92;68.42
56420;BME280;42323;52.170;7.538;2023-06-26T01:20:06;100786.72;;;21.92;68.42
56420;BME280;42323;52.170;7.538;2023-06-26T01:22:39;100783.97;;;21.87;68.38
56420;BME280;42323;52.170;7.538;2023-06-26T01:27:41;100772.59;;;21.75;69.03
56420;BME280;42323;52.170;7.538;2023-06-26T01:30:09;100770.19;;;21.73;69.36
56420;BME280;42323;52.170;7.538;2023-06-26T01:32:35;100768.81;;;21.71;69.23
56420;BME280;42323;52.170;7.538;2023-06-26T01:35:02;100762.13;;;21.68;69.52
56420;BME280;42323;52.170;7.538;2023-06-26T01:37:29;100751.16;;;21.65;69.59
56420;BME280;42323;52.170;7.538;2023-06-26T01:39:56;100759.16;;;21.65;69.66
56420;BME280;42323;52.170;7.538;2023-06-26T01:42:22;100756.97;;;21.62;69.86
56420;BME280;42323;52.170;7.538;2023-06-26T01:44:49;100744.09;;;21.59;69.69
56420;BME280;42323;52.170;7.538;2023-06-26T01:47:19;100745.09;;;21.52;69.87
56420;BME280;42323;52.170;7.538;2023-06-26T01:49:49;100744.31;;;21.52;70.26
56420;BME280;42323;52.170;7.538;2023-06-26T01:53:01;100739.44;;;21.49;70.31
56420;BME280;42323;52.170;7.538;2023-06-26T01:57:33;100741.19;;;21.38;70.40
56420;BME280;42323;52.170;7.538;2023-06-26T02:00:01;100737.72;;;21.38;70.24
56420;BME280;42323;52.170;7.538;2023-06-26T02:02:28;100745.38;;;21.34;70.52
56420;BME280;42323;52.170;7.538;2023-06-26T02:04:55;100742.63;;;21.29;70.71
56420;BME280;42323;52.170;7.538;2023-06-26T02:07:21;100739.97;;;21.29;70.61
56420;BME280;42323;52.170;7.538;2023-06-26T02:09:48;100732.75;;;21.29;70.58
56420;BME280;42323;52.170;7.538;2023-06-26T02:12:14;100731.38;;;21.27;70.63
56420;BME280;42323;52.170;7.538;2023-06-26T02:14:41;100733.97;;;21.22;70.81
56420;BME280;42323;52.170;7.538;2023-06-26T02:17:07;100734.72;;;21.17;71.03
56420;BME280;42323;52.170;7.538;2023-06-26T02:19:35;100732.84;;;21.18;70.91
56420;BME280;42323;52.170;7.538;2023-06-26T02:22:01;100739.22;;;21.17;71.03
56420;BME280;42323;52.170;7.538;2023-06-26T02:24:27;100728.78;;;21.15;70.76
56420;BME280;42323;52.170;7.538;2023-06-26T02:26:56;100733.09;;;21.16;70.78
56420;BME280;42323;52.170;7.538;2023-06-26T02:29:23;100734.97;;;21.16;70.56
56420;BME280;42323;52.170;7.538;2023-06-26T02:31:50;100733.31;;;21.15;70.92
56420;BME280;42323;52.170;7.538;2023-06-26T02:34:16;100739.72;;;21.14;71.03
56420;BME280;42323;52.170;7.538;2023-06-26T02:36:43;100730.13;;;21.13;71.05
56420;BME280;42323;52.170;7.538;2023-06-26T02:39:09;100731.97;;;21.12;70.72
56420;BME280;42323;52.170;7.538;2023-06-26T02:41:36;100733.50;;;21.08;70.83
56420;BME280;42323;52.170;7.538;2023-06-26T02:44:02;100721.47;;;21.05;70.84
56420;BME280;42323;52.170;7.538;2023-06-26T02:46:29;100732.13;;;21.05;71.02
56420;BME280;42323;52.170;7.538;2023-06-26T02:48:55;100736.41;;;21.07;70.84
56420;BME280;42323;52.170;7.538;2023-06-26T02:51:21;100744.09;;;21.03;70.71
56420;BME280;42323;52.170;7.538;2023-06-26T02:53:48;100740.03;;;21.00;71.13
56420;BME280;42323;52.170;7.538;2023-06-26T02:56:14;100737.84;;;20.97;71.31
56420;BME280;42323;52.170;7.538;2023-06-26T02:58:41;100736.25;;;20.96;71.17
56420;BME280;42323;52.170;7.538;2023-06-26T03:01:07;100733.03;;;20.94;71.63
56420;BME280;42323;52.170;7.538;2023-06-26T03:03:34;100734.31;;;20.92;71.65
56420;BME280;42323;52.170;7.538;2023-06-26T03:06:07;100733.50;;;20.91;71.75
56420;BME280;42323;52.170;7.538;2023-06-26T03:08:36;100739.31;;;20.88;71.58
56420;BME280;42323;52.170;7.538;2023-06-26T03:11:02;100739.78;;;20.85;71.48
56420;BME280;42323;52.170;7.538;2023-06-26T03:13:28;100734.16;;;20.82;71.78
56420;BME280;42323;52.170;7.538;2023-06-26T03:15:55;100732.28;;;20.82;71.94
56420;BME280;42323;52.170;7.538;2023-06-26T03:18:21;100717.03;;;20.77;72.17
56420;BME280;42323;52.170;7.538;2023-06-26T03:20:48;100717.25;;;20.76;72.39
56420;BME280;42323;52.170;7.538;2023-06-26T03:23:14;100725.75;;;20.73;72.36
56420;BME280;42323;52.170;7.538;2023-06-26T03:25:40;100732.34;;;20.70;72.24
56420;BME280;42323;52.170;7.538;2023-06-26T03:28:07;100729.44;;;20.72;72.15
56420;BME280;42323;52.170;7.538;2023-06-26T03:30:33;100735.03;;;20.70;71.77
56420;BME280;42323;52.170;7.538;2023-06-26T03:33:00;100737.94;;;20.69;71.92
56420;BME280;42323;52.170;7.538;2023-06-26T03:35:26;100734.47;;;20.68;72.10
56420;BME280;42323;52.170;7.538;2023-06-26T03:37:52;100737.94;;;20.69;71.87
56420;BME280;42323;52.170;7.538;2023-06-26T03:40:19;100740.00;;;20.67;72.02
56420;BME280;42323;52.170;7.538;2023-06-26T03:42:48;100728.88;;;20.70;71.93
56420;BME280;42323;52.170;7.538;2023-06-26T03:45:15;100730.16;;;20.67;72.12
56420;BME280;42323;52.170;7.538;2023-06-26T03:47:41;100739.53;;;20.70;71.83
56420;BME280;42323;52.170;7.538;2023-06-26T03:50:08;100728.63;;;20.71;71.80
56420;BME280;42323;52.170;7.538;2023-06-26T03:52:34;100722.84;;;20.74;71.61
56420;BME280;42323;52.170;7.538;2023-06-26T03:55:00;100732.22;;;20.77;71.35
56420;BME280;42323;52.170;7.538;2023-06-26T03:57:27;100727.91;;;20.76;71.35
56420;BME280;42323;52.170;7.538;2023-06-26T03:59:53;100732.22;;;20.77;71.16
56420;BME280;42323;52.170;7.538;2023-06-26T04:02:20;100733.81;;;20.78;71.02
56420;BME280;42323;52.170;7.538;2023-06-26T04:04:46;100740.75;;;20.79;71.11
56420;BME280;42323;52.170;7.538;2023-06-26T04:07:12;100726.38;;;20.80;71.06
56420;BME280;42323;52.170;7.538;2023-06-26T04:09:39;100735.97;;;20.81;70.93
56420;BME280;42323;52.170;7.538;2023-06-26T04:12:05;100733.91;;;20.83;70.54
56420;BME280;42323;52.170;7.538;2023-06-26T04:14:32;100736.09;;;20.86;70.53
56420;BME280;42323;52.170;7.538;2023-06-26T04:16:59;100740.91;;;20.89;70.23
56420;BME280;42323;52.170;7.538;2023-06-26T04:19:27;100748.44;;;20.92;70.42
56420;BME280;42323;52.170;7.538;2023-06-26T04:21:54;100759.09;;;20.92;69.88
56420;BME280;42323;52.170;7.538;2023-06-26T04:24:20;100758.53;;;20.90;69.55
56420;BME280;42323;52.170;7.538;2023-06-26T04:26:47;100755.94;;;20.95;69.26
56420;BME280;42323;52.170;7.538;2023-06-26T04:29:13;100759.50;;;21.01;69.04
56420;BME280;42323;52.170;7.538;2023-06-26T04:31:39;100755.78;;;21.02;69.08
56420;BME280;42323;52.170;7.538;2023-06-26T04:34:06;100755.78;;;21.02;68.79
56420;BME280;42323;52.170;7.538;2023-06-26T04:36:32;100766.75;;;21.05;68.51
56420;BME280;42323;52.170;7.538;2023-06-26T04:38:59;100751.09;;;21.09;68.33
56420;BME280;42323;52.170;7.538;2023-06-26T04:41:25;100755.16;;;21.12;67.87
56420;BME280;42323;52.170;7.538;2023-06-26T04:43:52;100768.03;;;21.20;67.69
56420;BME280;42323;52.170;7.538;2023-06-26T04:46:18;100762.22;;;21.23;67.41
56420;BME280;42323;52.170;7.538;2023-06-26T04:48:45;100765.47;;;21.25;67.71
56420;BME280;42323;52.170;7.538;2023-06-26T04:51:11;100762.31;;;21.28;67.61
56420;BME280;42323;52.170;7.538;2023-06-26T04:53:38;100762.66;;;21.32;67.82
56420;BME280;42323;52.170;7.538;2023-06-26T04:56:04;100771.63;;;21.42;67.41
56420;BME280;42323;52.170;7.538;2023-06-26T04:58:30;100767.72;;;21.50;67.14
56420;BME280;42323;52.170;7.538;2023-06-26T05:00:57;100765.97;;;21.56;67.00
56420;BME280;42323;52.170;7.538;2023-06-26T05:03:25;100765.97;;;21.56;67.06
56420;BME280;42323;52.170;7.538;2023-06-26T05:05:51;100772.47;;;21.65;66.62
56420;BME280;42323;52.170;7.538;2023-06-26T05:08:22;100765.59;;;21.69;66.62
56420;BME280;42323;52.170;7.538;2023-06-26T05:10:49;100763.25;;;21.72;66.39
56420;BME280;42323;52.170;7.538;2023-06-26T05:13:15;100769.47;;;21.78;66.47
56420;BME280;42323;52.170;7.538;2023-06-26T05:15:44;100772.19;;;21.83;66.47
56420;BME280;42323;52.170;7.538;2023-06-26T05:18:10;100768.53;;;21.89;66.37
56420;BME280;42323;52.170;7.538;2023-06-26T05:20:37;100766.16;;;21.93;66.01
56420;BME280;42323;52.170;7.538;2023-06-26T05:23:04;100757.50;;;22.02;66.01
56420;BME280;42323;52.170;7.538;2023-06-26T05:25:31;100769.34;;;22.12;65.38
56420;BME280;42323;52.170;7.538;2023-06-26T05:27:58;100764.00;;;22.12;65.67
56420;BME280;42323;52.170;7.538;2023-06-26T05:30:25;100772.03;;;22.12;65.57
56420;BME280;42323;52.170;7.538;2023-06-26T05:32:52;100777.13;;;22.13;65.46
56420;BME280;42323;52.170;7.538;2023-06-26T05:35:21;100777.13;;;22.13;65.68
56420;BME280;42323;52.170;7.538;2023-06-26T05:37:49;100774.03;;;22.21;65.64
56420;BME280;42323;52.170;7.538;2023-06-26T05:40:16;100783.31;;;22.19;65.65
56420;BME280;42323;52.170;7.538;2023-06-26T05:42:43;100788.16;;;22.22;65.61
56420;BME280;42323;52.170;7.538;2023-06-26T05:45:10;100786.88;;;22.24;65.59
56420;BME280;42323;52.170;7.538;2023-06-26T05:47:36;100769.31;;;22.28;65.25
56420;BME280;42323;52.170;7.538;2023-06-26T05:50:03;100789.88;;;22.28;65.54
56420;BME280;42323;52.170;7.538;2023-06-26T05:52:30;100800.53;;;22.28;65.32
56420;BME280;42323;52.170;7.538;2023-06-26T05:54:57;100793.56;;;22.27;65.62
56420;BME280;42323;52.170;7.538;2023-06-26T05:57:26;100797.63;;;22.29;65.30
56420;BME280;42323;52.170;7.538;2023-06-26T05:59:53;100808.59;;;22.33;65.58
56420;BME280;42323;52.170;7.538;2023-06-26T06:02:20;100804.44;;;22.42;65.24
56420;BME280;42323;52.170;7.538;2023-06-26T06:04:46;100794.59;;;22.48;64.88
56420;BME280;42323;52.170;7.538;2023-06-26T06:07:13;100806.72;;;22.56;65.05
56420;BME280;42323;52.170;7.538;2023-06-26T06:09:40;100799.41;;;22.73;64.55
56420;BME280;42323;52.170;7.538;2023-06-26T06:12:06;100799.63;;;22.93;63.77
56420;BME280;42323;52.170;7.538;2023-06-26T06:14:33;100801.06;;;23.06;63.46
56420;BME280;42323;52.170;7.538;2023-06-26T06:17:00;100796.44;;;22.96;62.42
56420;BME280;42323;52.170;7.538;2023-06-26T06:19:26;100805.78;;;22.94;63.41
56420;BME280;42323;52.170;7.538;2023-06-26T06:21:53;100816.47;;;22.94;63.11
56420;BME280;42323;52.170;7.538;2023-06-26T06:24:19;100811.25;;;23.09;63.30
56420;BME280;42323;52.170;7.538;2023-06-26T06:26:46;100823.69;;;23.25;62.72
56420;BME280;42323;52.170;7.538;2023-06-26T06:29:12;100823.00;;;23.40;62.00
56420;BME280;42323;52.170;7.538;2023-06-26T06:31:39;100825.41;;;23.42;62.08
56420;BME280;42323;52.170;7.538;2023-06-26T06:34:05;100825.41;;;23.42;62.08
56420;BME280;42323;52.170;7.538;2023-06-26T06:36:32;100834.38;;;23.58;62.16
56420;BME280;42323;52.170;7.538;2023-06-26T06:38:58;100830.16;;;23.67;61.31
56420;BME280;42323;52.170;7.538;2023-06-26T06:41:24;100854.69;;;23.59;61.40
56420;BME280;42323;52.170;7.538;2023-06-26T06:43:51;100848.88;;;23.35;61.80
56420;BME280;42323;52.170;7.538;2023-06-26T06:46:17;100848.94;;;23.08;62.63
56420;BME280;42323;52.170;7.538;2023-06-26T06:48:44;100855.13;;;22.86;63.31
56420;BME280;42323;52.170;7.538;2023-06-26T06:51:10;100864.81;;;22.70;65.12
56420;BME280;42323;52.170;7.538;2023-06-26T06:53:36;100884.44;;;22.54;66.44
56420;BME280;42323;52.170;7.538;2023-06-26T06:56:03;100887.16;;;22.37;67.08
56420;BME280;42323;52.170;7.538;2023-06-26T06:58:29;100896.03;;;22.21;67.76
56420;BME280;42323;52.170;7.538;2023-06-26T07:00:59;100904.84;;;22.04;68.50
56420;BME280;42323;52.170;7.538;2023-06-26T07:03:28;100907.91;;;21.96;69.19
56420;BME280;42323;52.170;7.538;2023-06-26T07:05:55;100919.97;;;21.99;69.26
56420;BME280;42323;52.170;7.538;2023-06-26T07:08:22;100918.50;;;22.08;69.35
56420;BME280;42323;52.170;7.538;2023-06-26T07:10:48;100926.66;;;22.18;69.44
56420;BME280;42323;52.170;7.538;2023-06-26T07:13:14;100919.72;;;22.17;69.58
56420;BME280;42323;52.170;7.538;2023-06-26T07:15:41;100927.47;;;22.19;69.91
56420;BME280;42323;52.170;7.538;2023-06-26T07:18:07;100922.53;;;22.27;68.82
56420;BME280;42323;52.170;7.538;2023-06-26T07:20:34;100928.09;;;22.43;68.11
56420;BME280;42323;52.170;7.538;2023-06-26T07:23:01;100934.13;;;22.55;67.14
56420;BME280;42323;52.170;7.538;2023-06-26T07:25:27;100945.78;;;22.71;66.55
56420;BME280;42323;52.170;7.538;2023-06-26T07:27:53;100939.25;;;22.62;66.62
56420;BME280;42323;52.170;7.538;2023-06-26T07:30:20;100940.91;;;22.63;66.21
56420;BME280;42323;52.170;7.538;2023-06-26T07:32:46;100946.84;;;22.70;66.57
56420;BME280;42323;52.170;7.538;2023-06-26T07:35:13;100957.16;;;22.83;65.63
56420;BME280;42323;52.170;7.538;2023-06-26T07:37:39;100941.28;;;22.93;64.40
56420;BME280;42323;52.170;7.538;2023-06-26T07:40:07;100936.22;;;22.97;63.74
56420;BME280;42323;52.170;7.538;2023-06-26T07:42:34;100948.78;;;22.74;64.32
56420;BME280;42323;52.170;7.538;2023-06-26T07:45:00;100949.88;;;22.57;65.42
56420;BME280;42323;52.170;7.538;2023-06-26T07:47:27;100942.69;;;22.57;65.48
56420;BME280;42323;52.170;7.538;2023-06-26T07:49:55;100941.88;;;22.57;65.34
56420;BME280;42323;52.170;7.538;2023-06-26T07:52:21;100941.94;;;22.62;65.54
56420;BME280;42323;52.170;7.538;2023-06-26T07:54:48;100930.38;;;22.78;64.53
56420;BME280;42323;52.170;7.538;2023-06-26T07:57:14;100942.88;;;22.72;64.38
56420;BME280;42323;52.170;7.538;2023-06-26T07:59:41;100932.56;;;22.81;64.80
56420;BME280;42323;52.170;7.538;2023-06-26T08:02:07;100939.03;;;22.85;64.03
56420;BME280;42323;52.170;7.538;2023-06-26T08:04:33;100939.81;;;22.86;64.10
56420;BME280;42323;52.170;7.538;2023-06-26T08:07:00;100947.44;;;22.94;63.76
56420;BME280;42323;52.170;7.538;2023-06-26T08:09:28;100950.84;;;23.11;63.95
56420;BME280;42323;52.170;7.538;2023-06-26T08:11:55;100956.97;;;23.39;62.08
56420;BME280;42323;52.170;7.538;2023-06-26T08:14:21;100963.59;;;23.58;61.38
56420;BME280;42323;52.170;7.538;2023-06-26T08:16:48;100960.25;;;23.73;60.54
56420;BME280;42323;52.170;7.538;2023-06-26T08:19:15;100973.63;;;24.05;59.76
56420;BME280;42323;52.170;7.538;2023-06-26T08:21:42;100959.88;;;24.34;58.92
56420;BME280;42323;52.170;7.538;2023-06-26T08:24:09;100962.13;;;24.52;58.29
56420;BME280;42323;52.170;7.538;2023-06-26T08:26:36;100975.91;;;24.71;58.07
56420;BME280;42323;52.170;7.538;2023-06-26T08:29:03;100966.00;;;24.82;57.51
56420;BME280;42323;52.170;7.538;2023-06-26T08:31:38;100978.75;;;24.54;57.68
56420;BME280;42323;52.170;7.538;2023-06-26T08:34:05;100980.66;;;24.53;58.27
56420;BME280;42323;52.170;7.538;2023-06-26T08:36:31;100974.81;;;24.67;57.85
56420;BME280;42323;52.170;7.538;2023-06-26T08:38:58;100977.53;;;24.82;57.43
56420;BME280;42323;52.170;7.538;2023-06-26T08:41:24;100993.38;;;24.89;57.31
56420;BME280;42323;52.170;7.538;2023-06-26T08:43:51;100987.75;;;24.85;57.31
56420;BME280;42323;52.170;7.538;2023-06-26T08:46:18;100987.75;;;24.85;57.31
56420;BME280;42323;52.170;7.538;2023-06-26T08:48:48;100999.31;;;24.43;54.78
56420;BME280;42323;52.170;7.538;2023-06-26T08:51:16;100988.03;;;24.36;55.28
56420;BME280;42323;52.170;7.538;2023-06-26T08:53:56;101001.03;;;24.65;55.27
56420;BME280;42323;52.170;7.538;2023-06-26T08:56:24;101001.03;;;24.65;55.27
56420;BME280;42323;52.170;7.538;2023-06-26T08:58:50;101014.44;;;24.65;54.36
56420;BME280;42323;52.170;7.538;2023-06-26T09:01:17;101015.44;;;24.48;55.05
56420;BME280;42323;52.170;7.538;2023-06-26T09:03:45;101024.63;;;24.58;54.49
56420;BME280;42323;52.170;7.538;2023-06-26T09:06:11;101004.63;;;24.81;54.50
56420;BME280;42323;52.170;7.538;2023-06-26T09:08:38;101013.22;;;24.88;53.74
56420;BME280;42323;52.170;7.538;2023-06-26T09:11:04;101015.78;;;25.15;53.61
56420;BME280;42323;52.170;7.538;2023-06-26T09:13:31;101012.56;;;25.23;53.47
56420;BME280;42323;52.170;7.538;2023-06-26T09:15:57;101020.06;;;25.21;53.74
56420;BME280;42323;52.170;7.538;2023-06-26T09:18:24;101029.47;;;25.28;52.89
56420;BME280;42323;52.170;7.538;2023-06-26T09:20:50;101029.75;;;25.32;50.59
56420;BME280;42323;52.170;7.538;2023-06-26T09:23:17;101052.19;;;25.06;50.90
56420;BME280;42323;52.170;7.538;2023-06-26T09:25:44;101048.59;;;24.80;50.07
56420;BME280;42323;52.170;7.538;2023-06-26T09:28:13;101043.78;;;24.87;49.32
56420;BME280;42323;52.170;7.538;2023-06-26T09:30:39;101041.22;;;24.60;49.39
56420;BME280;42323;52.170;7.538;2023-06-26T09:33:16;101040.53;;;24.80;49.74
56420;BME280;42323;52.170;7.538;2023-06-26T09:35:44;101042.09;;;25.28;47.11
56420;BME280;42323;52.170;7.538;2023-06-26T09:38:11;101067.31;;;25.22;46.15
56420;BME280;42323;52.170;7.538;2023-06-26T09:40:38;101054.53;;;24.92;47.52
56420;BME280;42323;52.170;7.538;2023-06-26T09:43:05;101052.03;;;24.75;48.18
56420;BME280;42323;52.170;7.538;2023-06-26T09:45:33;101046.34;;;24.61;48.83
56420;BME280;42323;52.170;7.538;2023-06-26T09:48:00;101045.34;;;24.77;49.40
56420;BME280;42323;52.170;7.538;2023-06-26T09:50:29;101045.34;;;24.77;48.10
56420;BME280;42323;52.170;7.538;2023-06-26T09:52:56;63019.00;;;-145.28;100.00
56420;BME280;42323;52.170;7.538;2023-06-26T09:55:23;63019.00;;;-145.28;100.00
56420;BME280;42323;52.170;7.538;2023-06-26T09:57:51;63019.00;;;-145.28;100.00
56420;BME280;42323;52.170;7.538;2023-06-26T10:00:18;63019.00;;;-145.28;100.00
56420;BME280;42323;52.170;7.538;2023-06-26T10:02:45;63019.00;;;-145.28;100.00
56420;BME280;42323;52.170;7.538;2023-06-26T10:05:12;63019.00;;;-145.28;100.00
56420;BME280;42323;52.170;7.538;2023-06-26T10:07:39;63019.00;;;-145.28;100.00
56420;BME280;42323;52.170;7.538;2023-06-26T10:10:07;63019.00;;;-145.28;100.00
56420;BME280;42323;52.170;7.538;2023-06-26T10:12:34;63019.00;;;-145.28;100.00
56420;BME280;42323;52.170;7.538;2023-06-26T10:15:02;63019.00;;;-145.28;100.00
56420;BME280;42323;52.170;7.538;2023-06-26T10:17:34;63019.00;;;-145.28;100.00
56420;BME280;42323;52.170;7.538;2023-06-26T10:20:03;63019.00;;;-145.28;100.00
56420;BME280;42323;52.170;7.538;2023-06-26T10:22:33;63019.00;;;-145.28;100.00
56420;BME280;42323;52.170;7.538;2023-06-26T10:25:03;63019.00;;;-145.28;100.00
56420;BME280;42323;52.170;7.538;2023-06-26T10:27:36;63019.00;;;-145.28;100.00
56420;BME280;42323;52.170;7.538;2023-06-26T10:30:06;63019.00;;;-145.28;100.00
56420;BME280;42323;52.170;7.538;2023-06-26T10:32:36;63019.00;;;-145.28;100.00
56420;BME280;42323;52.170;7.538;2023-06-26T10:35:06;63019.00;;;-145.28;100.00
56420;BME280;42323;52.170;7.538;2023-06-26T10:37:45;63019.00;;;-145.28;100.00
56420;BME280;42323;52.170;7.538;2023-06-26T10:40:13;63019.00;;;-145.28;100.00
56420;BME280;42323;52.170;7.538;2023-06-26T10:42:40;63019.00;;;-145.28;100.00
56420;BME280;42323;52.170;7.538;2023-06-26T10:47:40;63019.00;;;-145.28;100.00
56420;BME280;42323;52.170;7.538;2023-06-26T10:50:28;63019.00;;;-145.28;100.00
56420;BME280;42323;52.170;7.538;2023-06-26T10:55:57;63019.00;;;-145.28;100.00
56420;BME280;42323;52.170;7.538;2023-06-26T11:03:44;63019.00;;;-145.28;100.00
56420;BME280;42323;52.170;7.538;2023-06-26T11:06:12;63019.00;;;-145.28;100.00
56420;BME280;42323;52.170;7.538;2023-06-26T11:11:12;63019.00;;;-145.28;100.00
56420;BME280;42323;52.170;7.538;2023-06-26T11:13:40;63019.00;;;-145.28;100.00
56420;BME280;42323;52.170;7.538;2023-06-26T11:16:07;63019.00;;;-145.28;100.00
56420;BME280;42323;52.170;7.538;2023-06-26T11:18:33;63019.00;;;-145.28;100.00
56420;BME280;42323;52.170;7.538;2023-06-26T11:23:35;63019.00;;;-145.28;100.00
56420;BME280;42323;52.170;7.538;2023-06-26T11:26:18;63019.00;;;-145.28;100.00
56420;BME280;42323;52.170;7.538;2023-06-26T11:28:51;63019.00;;;-145.28;100.00
56420;BME280;42323;52.170;7.538;2023-06-26T11:31:29;63019.00;;;-145.28;100.00
56420;BME280;42323;52.170;7.538;2023-06-26T11:34:00;63019.00;;;-145.28;100.00
56420;BME280;42323;52.170;7.538;2023-06-26T11:36:27;63019.00;;;-145.28;100.00
56420;BME280;42323;52.170;7.538;2023-06-26T11:38:57;63019.00;;;-145.28;100.00
56420;BME280;42323;52.170;7.538;2023-06-26T11:41:27;63019.00;;;-145.28;100.00
56420;BME280;42323;52.170;7.538;2023-06-26T11:43:54;63019.00;;;-145.28;100.00
56420;BME280;42323;52.170;7.538;2023-06-26T11:46:22;63019.00;;;-145.28;100.00
56420;BME280;42323;52.170;7.538;2023-06-26T11:48:48;63019.00;;;-145.28;100.00
56420;BME280;42323;52.170;7.538;2023-06-26T11:51:16;63019.00;;;-145.28;100.00
56420;BME280;42323;52.170;7.538;2023-06-26T11:53:44;63019.00;;;-145.28;100.00
56420;BME280;42323;52.170;7.538;2023-06-26T11:56:15;63019.00;;;-145.28;100.00
56420;BME280;42323;52.170;7.538;2023-06-26T11:59:02;63019.00;;;-145.28;100.00
56420;BME280;42323;52.170;7.538;2023-06-26T12:01:39;63019.00;;;-145.28;100.00
56420;BME280;42323;52.170;7.538;2023-06-26T12:04:11;63019.00;;;-145.28;100.00
56420;BME280;42323;52.170;7.538;2023-06-26T12:06:40;63019.00;;;-145.28;100.00
56420;BME280;42323;52.170;7.538;2023-06-26T12:09:08;63019.00;;;-145.28;100.00
56420;BME280;42323;52.170;7.538;2023-06-26T12:11:44;63019.00;;;-145.28;100.00
56420;BME280;42323;52.170;7.538;2023-06-26T12:14:11;63019.00;;;-145.28;100.00
56420;BME280;42323;52.170;7.538;2023-06-26T12:16:38;63019.00;;;-145.28;100.00
56420;BME280;42323;52.170;7.538;2023-06-26T12:19:07;63019.00;;;-145.28;100.00
56420;BME280;42323;52.170;7.538;2023-06-26T12:24:12;63019.00;;;-145.28;100.00
56420;BME280;42323;52.170;7.538;2023-06-26T12:26:46;63019.00;;;-145.28;100.00
56420;BME280;42323;52.170;7.538;2023-06-26T12:29:14;63019.00;;;-145.28;100.00
56420;BME280;42323;52.170;7.538;2023-06-26T12:31:45;63019.00;;;-145.28;100.00
56420;BME280;42323;52.170;7.538;2023-06-26T12:34:13;63019.00;;;-145.28;100.00
56420;BME280;42323;52.170;7.538;2023-06-26T12:36:45;63019.00;;;-145.28;100.00
56420;BME280;42323;52.170;7.538;2023-06-26T12:39:12;63019.00;;;-145.28;100.00
56420;BME280;42323;52.170;7.538;2023-06-26T12:42:07;63019.00;;;-145.28;100.00
56420;BME280;42323;52.170;7.538;2023-06-26T12:44:34;63019.00;;;-145.28;100.00
56420;BME280;42323;52.170;7.538;2023-06-26T12:47:02;63019.00;;;-145.28;100.00
56420;BME280;42323;52.170;7.538;2023-06-26T12:49:39;63019.00;;;-145.28;100.00
56420;BME280;42323;52.170;7.538;2023-06-26T12:52:08;63019.00;;;-145.28;100.00
56420;BME280;42323;52.170;7.538;2023-06-26T12:54:36;63019.00;;;-145.28;100.00
56420;BME280;42323;52.170;7.538;2023-06-26T12:57:03;63019.00;;;-145.28;100.00
56420;BME280;42323;52.170;7.538;2023-06-26T12:59:33;63019.00;;;-145.28;100.00
56420;BME280;42323;52.170;7.538;2023-06-26T13:02:00;63019.00;;;-145.28;100.00
56420;BME280;42323;52.170;7.538;2023-06-26T13:04:27;63019.00;;;-145.28;100.00
56420;BME280;42323;52.170;7.538;2023-06-26T13:06:55;63019.00;;;-145.28;100.00
56420;BME280;42323;52.170;7.538;2023-06-26T13:09:23;63019.00;;;-145.28;100.00
56420;BME280;42323;52.170;7.538;2023-06-26T13:11:52;63019.00;;;-145.28;100.00